sensor_id;sensor_type;location;lat;lon;timestamp;temperature;humidity
24260;DHT22;12384;48.112;18.418;2023-12-22T00:00:53;6.00;99.90
24260;DHT22;12384;48.112;18.418;2023-12-22T00:03:22;6.00;99.90
24260;DHT22;12384;48.112;18.418;2023-12-22T00:05:50;6.00;99.90
24260;DHT22;12384;48.112;18.418;2023-12-22T00:08:19;6.00;99.90
24260;DHT22;12384;48.112;18.418;2023-12-22T00:10:47;6.00;99.90
24260;DHT22;12384;48.112;18.418;2023-12-22T00:13:16;6.00;99.90
24260;DHT22;12384;48.112;18.418;2023-12-22T00:15:44;6.00;99.90
24260;DHT22;12384;48.112;18.418;2023-12-22T00:18:14;6.00;99.90
24260;DHT22;12384;48.112;18.418;2023-12-22T00:20:43;6.00;99.90
24260;DHT22;12384;48.112;18.418;2023-12-22T00:23:12;6.00;99.90
24260;DHT22;12384;48.112;18.418;2023-12-22T00:25:40;5.90;99.90
24260;DHT22;12384;48.112;18.418;2023-12-22T00:28:09;5.90;99.90
24260;DHT22;12384;48.112;18.418;2023-12-22T00:30:37;6.00;99.90
24260;DHT22;12384;48.112;18.418;2023-12-22T00:33:05;5.90;99.90
24260;DHT22;12384;48.112;18.418;2023-12-22T00:35:35;5.90;99.90
24260;DHT22;12384;48.112;18.418;2023-12-22T00:38:05;5.90;99.90
24260;DHT22;12384;48.112;18.418;2023-12-22T00:40:33;5.90;99.90
24260;DHT22;12384;48.112;18.418;2023-12-22T00:43:02;5.90;99.90
24260;DHT22;12384;48.112;18.418;2023-12-22T00:45:30;5.90;99.90
24260;DHT22;12384;48.112;18.418;2023-12-22T00:47:59;5.90;99.90
24260;DHT22;12384;48.112;18.418;2023-12-22T00:50:27;5.90;99.90
24260;DHT22;12384;48.112;18.418;2023-12-22T00:52:57;5.90;99.90
24260;DHT22;12384;48.112;18.418;2023-12-22T00:55:26;5.90;99.90
24260;DHT22;12384;48.112;18.418;2023-12-22T00:57:54;5.90;99.90
24260;DHT22;12384;48.112;18.418;2023-12-22T01:00:23;5.80;99.90
24260;DHT22;12384;48.112;18.418;2023-12-22T01:02:51;5.80;99.90
24260;DHT22;12384;48.112;18.418;2023-12-22T01:05:20;5.90;99.90
24260;DHT22;12384;48.112;18.418;2023-12-22T01:07:48;5.90;99.90
24260;DHT22;12384;48.112;18.418;2023-12-22T01:10:19;5.90;99.90
24260;DHT22;12384;48.112;18.418;2023-12-22T01:12:48;5.80;99.90
24260;DHT22;12384;48.112;18.418;2023-12-22T01:15:17;5.90;99.90
24260;DHT22;12384;48.112;18.418;2023-12-22T01:17:45;5.90;99.90
24260;DHT22;12384;48.112;18.418;2023-12-22T01:20:14;5.90;99.90
24260;DHT22;12384;48.112;18.418;2023-12-22T01:22:43;5.90;99.90
24260;DHT22;12384;48.112;18.418;2023-12-22T01:25:11;5.90;99.90
24260;DHT22;12384;48.112;18.418;2023-12-22T01:27:41;5.90;99.90
24260;DHT22;12384;48.112;18.418;2023-12-22T01:30:10;5.90;99.90
24260;DHT22;12384;48.112;18.418;2023-12-22T01:32:38;5.90;99.90
24260;DHT22;12384;48.112;18.418;2023-12-22T01:35:07;5.90;99.90
24260;DHT22;12384;48.112;18.418;2023-12-22T01:37:37;5.90;99.90
24260;DHT22;12384;48.112;18.418;2023-12-22T01:40:07;5.90;99.90
24260;DHT22;12384;48.112;18.418;2023-12-22T01:42:35;5.80;99.90
24260;DHT22;12384;48.112;18.418;2023-12-22T01:45:05;5.80;99.90
24260;DHT22;12384;48.112;18.418;2023-12-22T01:47:34;5.80;99.90
24260;DHT22;12384;48.112;18.418;2023-12-22T01:50:04;5.80;99.90
24260;DHT22;12384;48.112;18.418;2023-12-22T01:52:33;5.80;99.90
24260;DHT22;12384;48.112;18.418;2023-12-22T01:55:02;5.80;99.90
24260;DHT22;12384;48.112;18.418;2023-12-22T01:57:30;5.70;99.90
24260;DHT22;12384;48.112;18.418;2023-12-22T01:59:59;5.70;99.90
24260;DHT22;12384;48.112;18.418;2023-12-22T02:03:02;5.70;99.90
24260;DHT22;12384;48.112;18.418;2023-12-22T02:05:31;5.70;99.90
24260;DHT22;12384;48.112;18.418;2023-12-22T02:08:00;5.60;99.90
24260;DHT22;12384;48.112;18.418;2023-12-22T02:10:29;5.60;99.90
24260;DHT22;12384;48.112;18.418;2023-12-22T02:12:57;5.60;99.90
24260;DHT22;12384;48.112;18.418;2023-12-22T02:15:26;5.60;99.90
24260;DHT22;12384;48.112;18.418;2023-12-22T02:18:00;5.60;99.90
24260;DHT22;12384;48.112;18.418;2023-12-22T02:20:32;5.60;99.90
24260;DHT22;12384;48.112;18.418;2023-12-22T02:23:02;5.60;99.90
24260;DHT22;12384;48.112;18.418;2023-12-22T02:25:31;5.60;99.90
24260;DHT22;12384;48.112;18.418;2023-12-22T02:28:04;5.60;99.90
24260;DHT22;12384;48.112;18.418;2023-12-22T02:30:39;5.50;99.90
24260;DHT22;12384;48.112;18.418;2023-12-22T02:33:09;5.50;99.90
24260;DHT22;12384;48.112;18.418;2023-12-22T02:35:38;5.50;99.90
24260;DHT22;12384;48.112;18.418;2023-12-22T02:38:12;5.40;99.90
24260;DHT22;12384;48.112;18.418;2023-12-22T02:40:41;5.40;99.90
24260;DHT22;12384;48.112;18.418;2023-12-22T02:43:10;5.30;99.90
24260;DHT22;12384;48.112;18.418;2023-12-22T02:45:38;5.30;99.90
24260;DHT22;12384;48.112;18.418;2023-12-22T02:48:07;5.20;99.90
24260;DHT22;12384;48.112;18.418;2023-12-22T02:50:36;5.10;99.90
24260;DHT22;12384;48.112;18.418;2023-12-22T02:53:04;5.10;99.90
24260;DHT22;12384;48.112;18.418;2023-12-22T02:55:34;5.00;99.90
24260;DHT22;12384;48.112;18.418;2023-12-22T02:58:03;4.90;99.90
24260;DHT22;12384;48.112;18.418;2023-12-22T03:00:31;4.90;99.90
24260;DHT22;12384;48.112;18.418;2023-12-22T03:03:00;4.80;99.90
24260;DHT22;12384;48.112;18.418;2023-12-22T03:05:28;4.70;99.90
24260;DHT22;12384;48.112;18.418;2023-12-22T03:07:57;4.60;99.90
24260;DHT22;12384;48.112;18.418;2023-12-22T03:10:25;4.60;99.90
24260;DHT22;12384;48.112;18.418;2023-12-22T03:12:55;4.50;99.90
24260;DHT22;12384;48.112;18.418;2023-12-22T03:15:24;4.50;99.90
24260;DHT22;12384;48.112;18.418;2023-12-22T03:17:53;4.50;99.90
24260;DHT22;12384;48.112;18.418;2023-12-22T03:20:21;4.50;99.90
24260;DHT22;12384;48.112;18.418;2023-12-22T03:22:49;4.50;99.90
24260;DHT22;12384;48.112;18.418;2023-12-22T03:25:18;4.50;99.90
24260;DHT22;12384;48.112;18.418;2023-12-22T03:27:47;4.50;99.90
24260;DHT22;12384;48.112;18.418;2023-12-22T03:30:17;4.50;99.90
24260;DHT22;12384;48.112;18.418;2023-12-22T03:32:45;4.50;99.90
24260;DHT22;12384;48.112;18.418;2023-12-22T03:35:14;4.50;99.90
24260;DHT22;12384;48.112;18.418;2023-12-22T03:37:43;4.40;99.90
24260;DHT22;12384;48.112;18.418;2023-12-22T03:40:12;4.40;99.90
24260;DHT22;12384;48.112;18.418;2023-12-22T03:42:40;4.40;99.90
24260;DHT22;12384;48.112;18.418;2023-12-22T03:45:09;4.40;99.90
24260;DHT22;12384;48.112;18.418;2023-12-22T03:47:38;4.30;99.90
24260;DHT22;12384;48.112;18.418;2023-12-22T03:50:07;4.30;99.90
24260;DHT22;12384;48.112;18.418;2023-12-22T03:52:36;4.30;99.90
24260;DHT22;12384;48.112;18.418;2023-12-22T03:55:05;4.20;99.90
24260;DHT22;12384;48.112;18.418;2023-12-22T03:57:34;4.10;99.90
24260;DHT22;12384;48.112;18.418;2023-12-22T04:00:02;4.10;99.90
24260;DHT22;12384;48.112;18.418;2023-12-22T04:02:32;4.00;99.90
24260;DHT22;12384;48.112;18.418;2023-12-22T04:05:02;3.90;99.90
24260;DHT22;12384;48.112;18.418;2023-12-22T04:07:31;3.90;99.90
24260;DHT22;12384;48.112;18.418;2023-12-22T04:09:59;3.80;99.90
24260;DHT22;12384;48.112;18.418;2023-12-22T04:12:28;3.70;99.90
24260;DHT22;12384;48.112;18.418;2023-12-22T04:14:56;3.60;99.90
24260;DHT22;12384;48.112;18.418;2023-12-22T04:17:25;3.60;99.90
24260;DHT22;12384;48.112;18.418;2023-12-22T04:19:53;3.50;99.90
24260;DHT22;12384;48.112;18.418;2023-12-22T04:22:23;3.40;99.90
24260;DHT22;12384;48.112;18.418;2023-12-22T04:24:52;3.40;99.90
24260;DHT22;12384;48.112;18.418;2023-12-22T04:27:20;3.30;99.90
24260;DHT22;12384;48.112;18.418;2023-12-22T04:29:48;3.30;99.90
24260;DHT22;12384;48.112;18.418;2023-12-22T04:32:17;3.20;99.90
24260;DHT22;12384;48.112;18.418;2023-12-22T04:34:45;3.20;99.90
24260;DHT22;12384;48.112;18.418;2023-12-22T04:37:14;3.10;99.90
24260;DHT22;12384;48.112;18.418;2023-12-22T04:39:44;3.10;99.90
24260;DHT22;12384;48.112;18.418;2023-12-22T04:42:12;3.00;99.90
24260;DHT22;12384;48.112;18.418;2023-12-22T04:44:41;3.00;99.90
24260;DHT22;12384;48.112;18.418;2023-12-22T04:47:09;2.90;99.90
24260;DHT22;12384;48.112;18.418;2023-12-22T04:49:39;2.90;99.90
24260;DHT22;12384;48.112;18.418;2023-12-22T04:52:08;2.90;99.90
24260;DHT22;12384;48.112;18.418;2023-12-22T04:54:36;2.80;99.90
24260;DHT22;12384;48.112;18.418;2023-12-22T04:57:06;2.70;99.90
24260;DHT22;12384;48.112;18.418;2023-12-22T04:59:35;2.70;99.90
24260;DHT22;12384;48.112;18.418;2023-12-22T05:02:03;2.60;99.90
24260;DHT22;12384;48.112;18.418;2023-12-22T05:04:32;2.60;99.90
24260;DHT22;12384;48.112;18.418;2023-12-22T05:07:00;2.50;99.90
24260;DHT22;12384;48.112;18.418;2023-12-22T05:09:34;2.40;99.90
24260;DHT22;12384;48.112;18.418;2023-12-22T05:12:02;2.40;99.90
24260;DHT22;12384;48.112;18.418;2023-12-22T05:14:32;2.30;99.90
24260;DHT22;12384;48.112;18.418;2023-12-22T05:17:00;2.20;99.90
24260;DHT22;12384;48.112;18.418;2023-12-22T05:19:29;2.20;99.90
24260;DHT22;12384;48.112;18.418;2023-12-22T05:21:57;2.10;99.90
24260;DHT22;12384;48.112;18.418;2023-12-22T05:24:27;2.10;99.90
24260;DHT22;12384;48.112;18.418;2023-12-22T05:26:55;2.00;99.90
24260;DHT22;12384;48.112;18.418;2023-12-22T05:29:24;2.00;99.90
24260;DHT22;12384;48.112;18.418;2023-12-22T05:31:54;2.00;99.90
24260;DHT22;12384;48.112;18.418;2023-12-22T05:34:22;1.90;99.90
24260;DHT22;12384;48.112;18.418;2023-12-22T05:36:51;1.90;99.90
24260;DHT22;12384;48.112;18.418;2023-12-22T05:39:19;1.90;99.90
24260;DHT22;12384;48.112;18.418;2023-12-22T05:41:48;1.90;99.90
24260;DHT22;12384;48.112;18.418;2023-12-22T05:44:16;1.90;99.90
24260;DHT22;12384;48.112;18.418;2023-12-22T05:46:45;1.90;99.90
24260;DHT22;12384;48.112;18.418;2023-12-22T05:49:15;2.00;99.90
24260;DHT22;12384;48.112;18.418;2023-12-22T05:51:43;2.10;99.90
24260;DHT22;12384;48.112;18.418;2023-12-22T05:54:12;2.20;99.90
24260;DHT22;12384;48.112;18.418;2023-12-22T05:56:40;2.30;99.90
24260;DHT22;12384;48.112;18.418;2023-12-22T05:59:09;2.40;99.90
24260;DHT22;12384;48.112;18.418;2023-12-22T06:01:38;2.50;99.90
24260;DHT22;12384;48.112;18.418;2023-12-22T06:04:06;2.60;99.90
24260;DHT22;12384;48.112;18.418;2023-12-22T06:06:38;2.60;99.90
24260;DHT22;12384;48.112;18.418;2023-12-22T06:09:07;2.70;99.90
24260;DHT22;12384;48.112;18.418;2023-12-22T06:11:39;2.80;99.90
24260;DHT22;12384;48.112;18.418;2023-12-22T06:14:07;2.80;99.90
24260;DHT22;12384;48.112;18.418;2023-12-22T06:16:36;2.90;99.90
24260;DHT22;12384;48.112;18.418;2023-12-22T06:19:05;2.90;99.90
24260;DHT22;12384;48.112;18.418;2023-12-22T06:21:36;3.00;99.90
24260;DHT22;12384;48.112;18.418;2023-12-22T06:24:07;3.00;99.90
24260;DHT22;12384;48.112;18.418;2023-12-22T06:26:36;3.00;99.90
24260;DHT22;12384;48.112;18.418;2023-12-22T06:29:05;3.00;99.90
24260;DHT22;12384;48.112;18.418;2023-12-22T06:31:33;3.00;99.90
24260;DHT22;12384;48.112;18.418;2023-12-22T06:34:02;3.00;99.90
24260;DHT22;12384;48.112;18.418;2023-12-22T06:36:32;3.10;99.90
24260;DHT22;12384;48.112;18.418;2023-12-22T06:39:01;3.10;99.90
24260;DHT22;12384;48.112;18.418;2023-12-22T06:41:31;3.10;99.90
24260;DHT22;12384;48.112;18.418;2023-12-22T06:44:00;3.10;99.90
24260;DHT22;12384;48.112;18.418;2023-12-22T06:46:29;3.10;99.90
24260;DHT22;12384;48.112;18.418;2023-12-22T06:48:58;3.20;99.90
24260;DHT22;12384;48.112;18.418;2023-12-22T06:51:31;3.20;99.90
24260;DHT22;12384;48.112;18.418;2023-12-22T06:54:03;3.30;99.90
24260;DHT22;12384;48.112;18.418;2023-12-22T06:56:35;3.40;99.90
24260;DHT22;12384;48.112;18.418;2023-12-22T06:59:04;3.50;99.90
24260;DHT22;12384;48.112;18.418;2023-12-22T07:01:33;3.60;99.90
24260;DHT22;12384;48.112;18.418;2023-12-22T07:04:04;3.60;99.90
24260;DHT22;12384;48.112;18.418;2023-12-22T07:06:35;3.70;99.90
24260;DHT22;12384;48.112;18.418;2023-12-22T07:09:31;3.90;99.90
24260;DHT22;12384;48.112;18.418;2023-12-22T07:12:01;4.10;99.90
24260;DHT22;12384;48.112;18.418;2023-12-22T07:14:31;4.30;99.90
24260;DHT22;12384;48.112;18.418;2023-12-22T07:17:01;4.50;99.90
24260;DHT22;12384;48.112;18.418;2023-12-22T07:19:30;4.70;99.90
24260;DHT22;12384;48.112;18.418;2023-12-22T07:21:59;5.00;99.90
24260;DHT22;12384;48.112;18.418;2023-12-22T07:24:29;5.20;99.90
24260;DHT22;12384;48.112;18.418;2023-12-22T07:26:57;5.40;99.90
24260;DHT22;12384;48.112;18.418;2023-12-22T07:29:28;5.80;99.90
24260;DHT22;12384;48.112;18.418;2023-12-22T07:31:56;6.10;99.90
24260;DHT22;12384;48.112;18.418;2023-12-22T07:34:26;6.50;99.90
24260;DHT22;12384;48.112;18.418;2023-12-22T07:36:55;6.90;99.90
24260;DHT22;12384;48.112;18.418;2023-12-22T07:39:33;7.30;99.90
24260;DHT22;12384;48.112;18.418;2023-12-22T07:42:04;7.70;99.90
24260;DHT22;12384;48.112;18.418;2023-12-22T07:44:35;8.00;99.90
24260;DHT22;12384;48.112;18.418;2023-12-22T07:47:04;8.40;99.90
24260;DHT22;12384;48.112;18.418;2023-12-22T07:49:34;8.70;99.90
24260;DHT22;12384;48.112;18.418;2023-12-22T07:52:03;8.90;99.90
24260;DHT22;12384;48.112;18.418;2023-12-22T07:54:32;9.10;99.90
24260;DHT22;12384;48.112;18.418;2023-12-22T07:57:00;9.30;99.90
24260;DHT22;12384;48.112;18.418;2023-12-22T07:59:29;9.60;99.90
24260;DHT22;12384;48.112;18.418;2023-12-22T08:02:00;9.90;99.90
24260;DHT22;12384;48.112;18.418;2023-12-22T08:04:28;10.20;99.90
24260;DHT22;12384;48.112;18.418;2023-12-22T08:06:57;10.40;99.90
24260;DHT22;12384;48.112;18.418;2023-12-22T08:09:26;10.70;99.40
24260;DHT22;12384;48.112;18.418;2023-12-22T08:11:54;11.00;98.70
24260;DHT22;12384;48.112;18.418;2023-12-22T08:14:24;11.20;98.10
24260;DHT22;12384;48.112;18.418;2023-12-22T08:16:52;11.50;97.70
24260;DHT22;12384;48.112;18.418;2023-12-22T08:19:22;11.90;96.80
24260;DHT22;12384;48.112;18.418;2023-12-22T08:21:55;12.30;95.70
24260;DHT22;12384;48.112;18.418;2023-12-22T08:24:25;12.60;92.90
24260;DHT22;12384;48.112;18.418;2023-12-22T08:26:53;13.10;93.60
24260;DHT22;12384;48.112;18.418;2023-12-22T08:29:22;13.50;91.50
24260;DHT22;12384;48.112;18.418;2023-12-22T08:31:51;13.60;84.60
24260;DHT22;12384;48.112;18.418;2023-12-22T08:34:19;13.40;71.30
24260;DHT22;12384;48.112;18.418;2023-12-22T08:36:49;13.10;67.70
24260;DHT22;12384;48.112;18.418;2023-12-22T08:39:18;12.80;60.70
24260;DHT22;12384;48.112;18.418;2023-12-22T08:41:47;12.80;67.00
24260;DHT22;12384;48.112;18.418;2023-12-22T08:44:16;12.90;66.70
24260;DHT22;12384;48.112;18.418;2023-12-22T08:46:44;12.80;64.70
24260;DHT22;12384;48.112;18.418;2023-12-22T08:49:13;12.60;62.80
24260;DHT22;12384;48.112;18.418;2023-12-22T08:51:42;12.20;61.00
24260;DHT22;12384;48.112;18.418;2023-12-22T08:54:12;11.80;57.50
24260;DHT22;12384;48.112;18.418;2023-12-22T08:56:40;11.30;57.40
24260;DHT22;12384;48.112;18.418;2023-12-22T08:59:09;10.80;56.90
24260;DHT22;12384;48.112;18.418;2023-12-22T09:01:37;10.30;55.90
24260;DHT22;12384;48.112;18.418;2023-12-22T09:04:09;9.80;56.10
24260;DHT22;12384;48.112;18.418;2023-12-22T09:06:39;9.40;57.50
24260;DHT22;12384;48.112;18.418;2023-12-22T09:09:07;9.00;57.80
24260;DHT22;12384;48.112;18.418;2023-12-22T09:11:37;8.60;57.90
24260;DHT22;12384;48.112;18.418;2023-12-22T09:14:06;8.40;59.20
24260;DHT22;12384;48.112;18.418;2023-12-22T09:16:37;8.10;59.30
24260;DHT22;12384;48.112;18.418;2023-12-22T09:19:06;7.90;59.40
24260;DHT22;12384;48.112;18.418;2023-12-22T09:21:35;7.70;59.70
24260;DHT22;12384;48.112;18.418;2023-12-22T09:24:04;7.60;61.00
24260;DHT22;12384;48.112;18.418;2023-12-22T09:26:33;7.70;63.90
24260;DHT22;12384;48.112;18.418;2023-12-22T09:29:03;8.10;66.50
24260;DHT22;12384;48.112;18.418;2023-12-22T09:31:32;8.50;67.60
24260;DHT22;12384;48.112;18.418;2023-12-22T09:34:00;8.70;67.70
24260;DHT22;12384;48.112;18.418;2023-12-22T09:36:30;8.90;66.80
24260;DHT22;12384;48.112;18.418;2023-12-22T09:38:59;8.90;65.30
24260;DHT22;12384;48.112;18.418;2023-12-22T09:41:27;8.90;64.30
24260;DHT22;12384;48.112;18.418;2023-12-22T09:43:58;8.70;63.80
24260;DHT22;12384;48.112;18.418;2023-12-22T09:46:30;8.60;63.50
24260;DHT22;12384;48.112;18.418;2023-12-22T09:49:00;8.50;63.40
24260;DHT22;12384;48.112;18.418;2023-12-22T09:51:30;8.50;64.40
24260;DHT22;12384;48.112;18.418;2023-12-22T09:53:59;8.50;65.80
24260;DHT22;12384;48.112;18.418;2023-12-22T09:56:33;8.80;66.90
24260;DHT22;12384;48.112;18.418;2023-12-22T09:59:01;9.10;66.70
24260;DHT22;12384;48.112;18.418;2023-12-22T10:01:33;9.30;67.80
24260;DHT22;12384;48.112;18.418;2023-12-22T10:04:02;9.40;66.60
24260;DHT22;12384;48.112;18.418;2023-12-22T10:06:30;9.50;66.50
24260;DHT22;12384;48.112;18.418;2023-12-22T10:08:59;9.50;65.40
24260;DHT22;12384;48.112;18.418;2023-12-22T10:11:29;9.50;64.80
24260;DHT22;12384;48.112;18.418;2023-12-22T10:13:59;9.40;64.00
24260;DHT22;12384;48.112;18.418;2023-12-22T10:16:29;9.30;63.00
24260;DHT22;12384;48.112;18.418;2023-12-22T10:19:00;9.10;62.30
24260;DHT22;12384;48.112;18.418;2023-12-22T10:21:28;9.00;62.90
24260;DHT22;12384;48.112;18.418;2023-12-22T10:24:01;9.00;63.50
24260;DHT22;12384;48.112;18.418;2023-12-22T10:26:29;9.00;64.70
24260;DHT22;12384;48.112;18.418;2023-12-22T10:28:57;9.30;66.30
24260;DHT22;12384;48.112;18.418;2023-12-22T10:31:26;9.70;68.40
24260;DHT22;12384;48.112;18.418;2023-12-22T10:33:55;10.30;66.90
24260;DHT22;12384;48.112;18.418;2023-12-22T10:36:25;10.70;68.10
24260;DHT22;12384;48.112;18.418;2023-12-22T10:38:53;10.90;65.30
24260;DHT22;12384;48.112;18.418;2023-12-22T10:41:22;11.00;63.10
24260;DHT22;12384;48.112;18.418;2023-12-22T10:43:51;11.00;61.50
24260;DHT22;12384;48.112;18.418;2023-12-22T10:46:20;11.10;60.00
24260;DHT22;12384;48.112;18.418;2023-12-22T10:48:48;11.00;58.00
24260;DHT22;12384;48.112;18.418;2023-12-22T10:51:21;10.80;57.30
24260;DHT22;12384;48.112;18.418;2023-12-22T10:53:50;10.70;56.60
24260;DHT22;12384;48.112;18.418;2023-12-22T10:56:20;10.50;55.90
24260;DHT22;12384;48.112;18.418;2023-12-22T10:58:50;10.10;55.30
24260;DHT22;12384;48.112;18.418;2023-12-22T11:01:21;9.80;56.30
24260;DHT22;12384;48.112;18.418;2023-12-22T11:03:51;9.40;56.50
24260;DHT22;12384;48.112;18.418;2023-12-22T11:06:20;9.10;56.90
24260;DHT22;12384;48.112;18.418;2023-12-22T11:08:52;8.70;57.30
24260;DHT22;12384;48.112;18.418;2023-12-22T11:11:27;8.50;57.90
24260;DHT22;12384;48.112;18.418;2023-12-22T11:13:57;8.30;58.50
24260;DHT22;12384;48.112;18.418;2023-12-22T11:16:28;8.10;58.90
24260;DHT22;12384;48.112;18.418;2023-12-22T11:18:56;7.90;59.30
24260;DHT22;12384;48.112;18.418;2023-12-22T11:21:26;7.70;59.50
24260;DHT22;12384;48.112;18.418;2023-12-22T11:23:57;7.60;59.60
24260;DHT22;12384;48.112;18.418;2023-12-22T11:26:26;7.50;59.90
24260;DHT22;12384;48.112;18.418;2023-12-22T11:28:55;7.40;60.50
24260;DHT22;12384;48.112;18.418;2023-12-22T11:31:26;7.40;61.40
24260;DHT22;12384;48.112;18.418;2023-12-22T11:33:56;7.40;62.00
24260;DHT22;12384;48.112;18.418;2023-12-22T11:36:38;7.40;62.00
24260;DHT22;12384;48.112;18.418;2023-12-22T11:39:09;7.50;62.00
24260;DHT22;12384;48.112;18.418;2023-12-22T11:41:40;7.50;62.30
24260;DHT22;12384;48.112;18.418;2023-12-22T11:44:09;7.50;62.30
24260;DHT22;12384;48.112;18.418;2023-12-22T11:46:38;7.50;62.40
24260;DHT22;12384;48.112;18.418;2023-12-22T11:49:06;7.60;62.50
24260;DHT22;12384;48.112;18.418;2023-12-22T11:51:35;7.60;62.30
24260;DHT22;12384;48.112;18.418;2023-12-22T11:54:04;7.70;62.10
24260;DHT22;12384;48.112;18.418;2023-12-22T11:56:59;7.70;61.90
24260;DHT22;12384;48.112;18.418;2023-12-22T11:59:28;7.70;61.90
24260;DHT22;12384;48.112;18.418;2023-12-22T12:01:57;7.70;61.50
24260;DHT22;12384;48.112;18.418;2023-12-22T12:04:27;7.70;60.80
24260;DHT22;12384;48.112;18.418;2023-12-22T12:06:56;7.60;59.90
24260;DHT22;12384;48.112;18.418;2023-12-22T12:09:45;7.50;59.50
24260;DHT22;12384;48.112;18.418;2023-12-22T12:12:15;7.30;59.10
24260;DHT22;12384;48.112;18.418;2023-12-22T12:14:47;7.10;59.20
24260;DHT22;12384;48.112;18.418;2023-12-22T12:17:19;6.90;59.40
24260;DHT22;12384;48.112;18.418;2023-12-22T12:19:48;6.60;60.30
24260;DHT22;12384;48.112;18.418;2023-12-22T12:22:18;6.40;60.20
24260;DHT22;12384;48.112;18.418;2023-12-22T12:24:52;6.20;60.70
24260;DHT22;12384;48.112;18.418;2023-12-22T12:27:23;6.10;61.50
24260;DHT22;12384;48.112;18.418;2023-12-22T12:29:52;6.00;62.10
24260;DHT22;12384;48.112;18.418;2023-12-22T12:32:23;5.90;62.60
24260;DHT22;12384;48.112;18.418;2023-12-22T12:34:52;5.90;63.20
24260;DHT22;12384;48.112;18.418;2023-12-22T12:37:23;5.80;63.40
24260;DHT22;12384;48.112;18.418;2023-12-22T12:39:55;5.70;63.70
24260;DHT22;12384;48.112;18.418;2023-12-22T12:42:29;5.60;63.80
24260;DHT22;12384;48.112;18.418;2023-12-22T12:44:59;5.60;64.30
24260;DHT22;12384;48.112;18.418;2023-12-22T12:47:28;5.50;64.70
24260;DHT22;12384;48.112;18.418;2023-12-22T12:49:57;5.50;65.10
24260;DHT22;12384;48.112;18.418;2023-12-22T12:52:27;5.50;65.60
24260;DHT22;12384;48.112;18.418;2023-12-22T12:54:55;5.50;66.80
24260;DHT22;12384;48.112;18.418;2023-12-22T12:57:25;5.50;67.30
24260;DHT22;12384;48.112;18.418;2023-12-22T12:59:55;5.70;68.70
24260;DHT22;12384;48.112;18.418;2023-12-22T13:02:25;5.80;69.60
24260;DHT22;12384;48.112;18.418;2023-12-22T13:04:54;5.90;69.80
24260;DHT22;12384;48.112;18.418;2023-12-22T13:07:26;6.00;69.40
24260;DHT22;12384;48.112;18.418;2023-12-22T13:09:55;6.00;69.00
24260;DHT22;12384;48.112;18.418;2023-12-22T13:12:24;6.00;68.50
24260;DHT22;12384;48.112;18.418;2023-12-22T13:14:55;6.00;68.20
24260;DHT22;12384;48.112;18.418;2023-12-22T13:17:30;5.90;67.80
24260;DHT22;12384;48.112;18.418;2023-12-22T13:19:59;5.80;67.70
24260;DHT22;12384;48.112;18.418;2023-12-22T13:22:28;5.80;67.90
24260;DHT22;12384;48.112;18.418;2023-12-22T13:24:56;5.80;68.20
24260;DHT22;12384;48.112;18.418;2023-12-22T13:27:26;5.80;68.40
24260;DHT22;12384;48.112;18.418;2023-12-22T13:29:56;5.70;68.50
24260;DHT22;12384;48.112;18.418;2023-12-22T13:32:24;5.80;68.90
24260;DHT22;12384;48.112;18.418;2023-12-22T13:34:55;6.00;70.20
24260;DHT22;12384;48.112;18.418;2023-12-22T13:37:24;6.40;71.20
24260;DHT22;12384;48.112;18.418;2023-12-22T13:39:54;7.00;71.00
24260;DHT22;12384;48.112;18.418;2023-12-22T13:42:23;7.60;69.40
24260;DHT22;12384;48.112;18.418;2023-12-22T13:44:52;8.20;67.90
24260;DHT22;12384;48.112;18.418;2023-12-22T13:47:22;8.60;65.60
24260;DHT22;12384;48.112;18.418;2023-12-22T13:49:55;9.00;64.80
24260;DHT22;12384;48.112;18.418;2023-12-22T13:52:26;9.10;63.90
24260;DHT22;12384;48.112;18.418;2023-12-22T13:54:55;9.20;62.70
24260;DHT22;12384;48.112;18.418;2023-12-22T13:57:25;9.10;60.70
24260;DHT22;12384;48.112;18.418;2023-12-22T13:59:54;8.90;59.90
24260;DHT22;12384;48.112;18.418;2023-12-22T14:02:24;8.70;59.20
24260;DHT22;12384;48.112;18.418;2023-12-22T14:04:53;8.40;58.60
24260;DHT22;12384;48.112;18.418;2023-12-22T14:07:21;8.00;58.30
24260;DHT22;12384;48.112;18.418;2023-12-22T14:09:50;7.70;57.90
24260;DHT22;12384;48.112;18.418;2023-12-22T14:12:19;7.40;58.00
24260;DHT22;12384;48.112;18.418;2023-12-22T14:14:55;7.10;58.20
24260;DHT22;12384;48.112;18.418;2023-12-22T14:17:25;6.80;58.40
24260;DHT22;12384;48.112;18.418;2023-12-22T14:19:56;6.60;58.50
24260;DHT22;12384;48.112;18.418;2023-12-22T14:22:25;6.50;58.80
24260;DHT22;12384;48.112;18.418;2023-12-22T14:24:53;6.30;59.00
24260;DHT22;12384;48.112;18.418;2023-12-22T14:27:23;6.20;59.10
24260;DHT22;12384;48.112;18.418;2023-12-22T14:29:52;6.10;59.30
24260;DHT22;12384;48.112;18.418;2023-12-22T14:32:20;5.90;59.40
24260;DHT22;12384;48.112;18.418;2023-12-22T14:34:51;5.80;59.30
24260;DHT22;12384;48.112;18.418;2023-12-22T14:37:19;5.70;59.30
24260;DHT22;12384;48.112;18.418;2023-12-22T14:39:48;5.60;59.30
24260;DHT22;12384;48.112;18.418;2023-12-22T14:42:17;5.50;59.30
24260;DHT22;12384;48.112;18.418;2023-12-22T14:44:45;5.40;59.30
24260;DHT22;12384;48.112;18.418;2023-12-22T14:47:14;5.30;59.30
24260;DHT22;12384;48.112;18.418;2023-12-22T14:49:42;5.30;59.30
24260;DHT22;12384;48.112;18.418;2023-12-22T14:52:12;5.20;59.40
24260;DHT22;12384;48.112;18.418;2023-12-22T14:54:41;5.10;59.50
24260;DHT22;12384;48.112;18.418;2023-12-22T14:57:09;5.00;59.60
24260;DHT22;12384;48.112;18.418;2023-12-22T14:59:38;5.00;59.60
24260;DHT22;12384;48.112;18.418;2023-12-22T15:02:06;4.90;59.80
24260;DHT22;12384;48.112;18.418;2023-12-22T15:04:35;4.90;59.90
24260;DHT22;12384;48.112;18.418;2023-12-22T15:07:03;4.80;59.90
24260;DHT22;12384;48.112;18.418;2023-12-22T15:09:38;4.80;60.00
24260;DHT22;12384;48.112;18.418;2023-12-22T15:12:07;4.70;60.10
24260;DHT22;12384;48.112;18.418;2023-12-22T15:14:35;4.60;60.20
24260;DHT22;12384;48.112;18.418;2023-12-22T15:17:04;4.50;60.30
24260;DHT22;12384;48.112;18.418;2023-12-22T15:19:32;4.50;60.50
24260;DHT22;12384;48.112;18.418;2023-12-22T15:22:01;4.40;60.60
24260;DHT22;12384;48.112;18.418;2023-12-22T15:24:31;4.40;60.80
24260;DHT22;12384;48.112;18.418;2023-12-22T15:27:00;4.30;60.80
24260;DHT22;12384;48.112;18.418;2023-12-22T15:29:29;4.30;61.10
24260;DHT22;12384;48.112;18.418;2023-12-22T15:31:58;4.30;61.20
24260;DHT22;12384;48.112;18.418;2023-12-22T15:34:27;4.30;61.40
24260;DHT22;12384;48.112;18.418;2023-12-22T15:36:56;4.20;61.50
24260;DHT22;12384;48.112;18.418;2023-12-22T15:39:26;4.20;61.60
24260;DHT22;12384;48.112;18.418;2023-12-22T15:41:55;4.20;61.80
24260;DHT22;12384;48.112;18.418;2023-12-22T15:44:25;4.20;61.90